KNYG

Quantico MCAF / Turner Field Airport

Quantico, Virginia, USA
METAR KNYG 180156Z AUTO 30003KT 10SM CLR 26/22 A2997 RMK AO2 SLP150 T02610222
Observed Flight Rules
Aug-18 @ 01:56 UTC (33 minutes ago) Visual Flight Rules
Wind Visibility Clouds
300° at 3 knots 10 miles
  • Clear skies
Temperatures Readings
Current 26°C / 79°F
Dewpoint 22°C / 72°F
Humidity 79%
Altimeter 29.97" Hg
Pressure 1015 hPa
Elevation 4
METAR KNYG 180156Z AUTO 30003KT 10SM CLR 26/22 A2997 RMK AO2 SLP150 T02610222
Observed Flight Rules
Aug-18 @ 01:56 UTC
(33 minutes ago)
VFR
Wind Visibility
300° at 3 knots 10 miles
Clouds
  • Clear skies
Temperature Dewpoint
26°C / 79°F 22°C / 72°F
Humidity Altimeter Pressure
79% 29.97" Hg 1015 hPa